Weather at Ioto (Iwo Jima) Airbase

Public forecast

Using degrees Celsius for public forecast. Weather courtesy of forecast.io.

Current aviation weather report (METAR) for Ioto (Iwo Jima) Airbase

2024/06/13 18:00 (retrieved 2 hours ago)

RJAW 131800Z 19011KT 9999 FEW008 SCT012 27/25 Q1011 RMK 1ST008 3CU012 A2987 WIND BY EQPT/25

Closest aviation forecast (TAF) to Ioto (Iwo Jima) Airbase

Closest forecast is Kadena Air Base, 739.7 nm (1,369.9 km) W.

2024/06/13 16:03 (retrieved 4 hours ago)

TAF RODN 131600Z 1316/1422 18009KT 9999 BKN025 BKN050 QNH2964INS BECMG 1321/1322 20010G15KT 8000 -SHRA BR BKN020 QNH2965INS TEMPO 1322/1404 22012G20KT 2400 TSRA BKN015CB BECMG 1408/1409 22012KT 9999 VCSH BKN025 QNH2967INS BECMG 1412/1413 22012KT 9999 NSW BKN030 QNH2967INS TX29/1405Z TN24/1321Z